Time;durP1;ratioP1;P1;durP2;ratioP2;P2;SDS_P1;SDS_P2;PMS_P1;PMS_P2;Temp;Humidity;BMP_temperature;BMP_pressure;BME280_temperature;BME280_humidity;BME280_pressure;Samples;Min_cycle;Max_cycle;Signal;HPM_P1;HPM_P2
2021/06/25 00:00:08;;;;;;;15.43;6.10;;;;;;;22.62;82.26;100543.33;1703275;83;39168;-71
2021/06/25 00:02:36;;;;;;;14.75;6.37;;;;;;;22.55;82.11;100540.38;1654339;85;21487;-70
2021/06/25 00:05:05;;;;;;;14.17;5.97;;;;;;;22.48;81.90;100546.95;1669310;84;21083;-70
2021/06/25 00:07:33;;;;;;;15.17;6.90;;;;;;;22.39;81.71;100542.95;1635996;86;21127;-70
2021/06/25 00:09:59;;;;;;;11.53;6.13;;;;;;;22.32;81.45;100544.07;1675073;83;21020;-71
2021/06/25 00:12:26;;;;;;;13.20;6.20;;;;;;;22.24;81.18;100546.30;1691113;83;21213;-70
2021/06/25 00:14:53;;;;;;;11.67;5.93;;;;;;;22.14;80.85;100540.69;1685127;83;21000;-71
2021/06/25 00:17:21;;;;;;;10.63;5.30;;;;;;;22.03;80.62;100542.25;1687125;84;21460;-70
2021/06/25 00:19:49;;;;;;;9.60;5.90;;;;;;;21.93;80.59;100539.38;1697853;82;20944;-70
2021/06/25 00:22:16;;;;;;;12.83;6.10;;;;;;;21.88;80.65;100533.34;1692810;84;21066;-71
2021/06/25 00:24:42;;;;;;;16.83;6.10;;;;;;;21.81;80.66;100530.36;1693180;83;21217;-70
2021/06/25 00:27:09;;;;;;;12.33;5.40;;;;;;;21.73;80.89;100531.47;1694768;84;21154;-70
2021/06/25 00:29:36;;;;;;;10.20;5.20;;;;;;;21.68;81.07;100531.66;1682544;83;21100;-70
2021/06/25 00:32:03;;;;;;;16.10;6.03;;;;;;;21.65;81.27;100536.42;1678046;83;21084;-70
2021/06/25 00:34:30;;;;;;;12.30;6.00;;;;;;;21.62;81.38;100536.27;1696145;84;21645;-70
2021/06/25 00:36:58;;;;;;;13.03;5.33;;;;;;;21.62;81.46;100538.98;1690393;84;21013;-69
2021/06/25 00:39:24;;;;;;;10.57;5.87;;;;;;;21.59;81.47;100528.23;1695392;83;21295;-70
2021/06/25 00:41:51;;;;;;;11.03;5.57;;;;;;;21.59;81.48;100534.23;1699907;83;21064;-69
2021/06/25 00:44:20;;;;;;;9.17;5.40;;;;;;;21.59;81.52;100535.03;1694762;82;21079;-69
2021/06/25 00:46:47;;;;;;;9.17;5.47;;;;;;;21.57;81.47;100532.41;1701544;83;21040;-69
2021/06/25 00:49:14;;;;;;;9.53;5.13;;;;;;;21.52;81.53;100526.62;1691353;82;21724;-70
2021/06/25 00:51:42;;;;;;;8.40;5.17;;;;;;;21.52;81.62;100525.26;1695071;84;21091;-69
2021/06/25 00:54:10;;;;;;;9.60;5.53;;;;;;;21.52;81.62;100517.11;1682320;84;21103;-69
2021/06/25 00:56:37;;;;;;;10.57;5.20;;;;;;;21.50;81.66;100516.06;1690051;84;21463;-70
2021/06/25 00:59:05;;;;;;;9.23;5.83;;;;;;;21.50;81.76;100519.34;1697388;83;21101;-69
2021/06/25 01:01:32;;;;;;;9.87;5.47;;;;;;;21.48;81.98;100516.16;1695406;84;21174;-69
2021/06/25 01:03:58;;;;;;;11.60;5.80;;;;;;;21.45;82.09;100515.45;1685871;82;21096;-69
2021/06/25 01:06:28;;;;;;;10.97;5.27;;;;;;;21.41;82.16;100516.69;1677533;84;21107;-69
2021/06/25 01:08:58;;;;;;;9.33;5.17;;;;;;;21.41;82.22;100518.61;1692346;82;21045;-70
2021/06/25 01:11:28;;;;;;;13.17;6.70;;;;;;;21.39;82.27;100512.70;1689194;84;21071;-70
2021/06/25 01:13:54;;;;;;;14.10;5.97;;;;;;;21.37;82.15;100519.05;1690400;82;21074;-70
2021/06/25 01:16:22;;;;;;;10.50;5.80;;;;;;;21.31;81.96;100519.20;1696780;82;21097;-70
2021/06/25 01:18:48;;;;;;;10.67;6.10;;;;;;;21.27;81.88;100525.06;1699729;82;21032;-70
2021/06/25 01:21:15;;;;;;;13.07;6.23;;;;;;;21.24;81.83;100527.64;1678149;82;21107;-70
2021/06/25 01:23:43;;;;;;;10.33;6.20;;;;;;;21.20;81.70;100524.00;1681813;83;21107;-70
2021/06/25 01:26:10;;;;;;;14.17;6.20;;;;;;;21.16;81.63;100517.61;1681347;83;22064;-71
2021/06/25 01:28:38;;;;;;;11.33;6.30;;;;;;;21.12;81.61;100505.82;1699855;82;21172;-69
2021/06/25 01:31:05;;;;;;;17.30;6.60;;;;;;;21.08;81.59;100505.13;1701775;83;21040;-69
2021/06/25 01:33:32;;;;;;;8.27;6.00;;;;;;;21.07;81.58;100501.39;1691887;83;21083;-69
2021/06/25 01:36:01;;;;;;;10.47;6.10;;;;;;;21.05;81.58;100502.27;1701063;84;21024;-69
2021/06/25 01:38:28;;;;;;;11.00;5.97;;;;;;;21.02;81.58;100505.07;1697445;82;21159;-68
2021/06/25 01:40:55;;;;;;;13.60;6.40;;;;;;;20.99;81.62;100504.94;1695252;83;21574;-69
2021/06/25 01:43:24;;;;;;;11.83;6.57;;;;;;;20.96;81.64;100502.88;1683041;83;21025;-69
2021/06/25 01:45:52;;;;;;;8.13;6.10;;;;;;;20.86;81.91;100504.05;1674158;84;21107;-69
2021/06/25 01:48:18;;;;;;;12.60;6.90;;;;;;;20.75;82.22;100506.91;1703617;82;21055;-70
2021/06/25 01:50:47;;;;;;;16.80;6.80;;;;;;;20.70;82.32;100505.75;1698117;83;21088;-69
2021/06/25 01:53:16;;;;;;;9.33;6.27;;;;;;;20.64;82.45;100507.05;1692783;84;21041;-69
2021/06/25 01:55:46;;;;;;;10.28;6.10;;;;;;;20.59;82.65;100502.58;1690494;83;21454;-70
2021/06/25 01:58:23;;;;;;;8.83;6.30;;;;;;;20.58;82.91;100503.14;1701646;82;21088;-69
2021/06/25 02:00:58;;;;;;;9.70;6.67;;;;;;;20.58;83.09;100503.14;1698012;84;21052;-69
2021/06/25 02:03:26;;;;;;;10.97;6.27;;;;;;;20.60;83.24;100501.48;1679682;84;21144;-69
2021/06/25 02:05:53;;;;;;;8.67;6.43;;;;;;;20.62;83.29;100500.56;1698474;84;21405;-68
2021/06/25 02:08:20;;;;;;;13.43;6.67;;;;;;;20.63;83.26;100494.01;1694510;82;21139;-69
2021/06/25 02:10:47;;;;;;;10.90;6.20;;;;;;;20.63;83.23;100495.37;1693927;82;21041;-69
2021/06/25 02:13:14;;;;;;;11.33;6.50;;;;;;;20.65;83.29;100489.62;1685931;83;21483;-69
2021/06/25 02:15:42;;;;;;;10.47;6.63;;;;;;;20.65;83.38;100489.62;1694668;83;21683;-70
2021/06/25 02:18:09;;;;;;;12.07;5.80;;;;;;;20.66;83.48;100484.42;1703429;84;21071;-69
2021/06/25 02:20:36;;;;;;;9.90;5.70;;;;;;;20.67;83.54;100488.19;1698011;82;21110;-70
2021/06/25 02:23:03;;;;;;;10.60;5.80;;;;;;;20.69;83.54;100486.48;1673394;83;21514;-70
2021/06/25 02:25:30;;;;;;;10.47;5.83;;;;;;;20.72;83.57;100500.20;1696875;84;21107;-70
2021/06/25 02:27:57;;;;;;;13.13;6.10;;;;;;;20.75;83.50;100497.41;1681441;83;21781;-70
2021/06/25 02:30:24;;;;;;;9.73;6.13;;;;;;;20.79;83.41;100499.13;1692400;82;21061;-68
2021/06/25 02:32:51;;;;;;;11.57;6.47;;;;;;;20.83;83.29;100499.30;1701374;84;21116;-70
2021/06/25 02:35:18;;;;;;;11.10;5.90;;;;;;;20.88;83.27;100501.02;1696488;82;21099;-70
2021/06/25 02:37:46;;;;;;;10.70;5.97;;;;;;;20.92;83.19;100515.52;1693632;82;21068;-71
2021/06/25 02:40:14;;;;;;;11.37;6.00;;;;;;;20.96;83.14;100514.56;1682435;82;21142;-70
2021/06/25 02:42:42;;;;;;;9.93;6.33;;;;;;;21.01;83.05;100518.99;1691466;83;21102;-69
2021/06/25 02:45:11;;;;;;;10.63;6.00;;;;;;;21.06;82.94;100515.53;1699154;83;21119;-70
2021/06/25 02:47:38;;;;;;;14.83;6.13;;;;;;;21.15;82.88;100520.11;1685308;83;21535;-70
2021/06/25 02:50:06;;;;;;;11.87;6.30;;;;;;;21.20;82.81;100517.21;1673973;83;21127;-70
2021/06/25 02:52:34;;;;;;;12.47;6.33;;;;;;;21.27;82.71;100516.13;1697589;83;21150;-69
2021/06/25 02:55:01;;;;;;;11.13;6.33;;;;;;;21.33;82.59;100508.02;1700991;83;21087;-70
2021/06/25 02:57:28;;;;;;;9.67;6.30;;;;;;;21.39;82.44;100513.52;1700049;83;21271;-70
2021/06/25 02:59:55;;;;;;;9.63;6.03;;;;;;;21.44;82.25;100507.08;1681733;82;21040;-70
2021/06/25 03:02:21;;;;;;;11.33;6.90;;;;;;;21.53;82.11;100509.17;1695493;82;21128;-70
2021/06/25 03:04:48;;;;;;;12.83;6.83;;;;;;;21.59;81.91;100507.06;1691624;84;21162;-69
2021/06/25 03:07:15;;;;;;;15.27;6.23;;;;;;;21.61;81.75;100506.15;1700257;82;21599;-70
2021/06/25 03:09:42;;;;;;;12.47;6.50;;;;;;;21.66;81.63;100498.59;1687196;82;21099;-70
2021/06/25 03:12:10;;;;;;;12.03;7.10;;;;;;;21.71;81.63;100497.02;1684442;83;21737;-70
2021/06/25 03:14:39;;;;;;;15.27;7.63;;;;;;;21.76;81.41;100497.39;1697665;84;21139;-69
2021/06/25 03:17:06;;;;;;;12.47;7.10;;;;;;;21.83;81.03;100505.01;1692176;84;21140;-69
2021/06/25 03:19:32;;;;;;;11.67;6.50;;;;;;;21.89;80.68;100506.39;1694896;84;21146;-69
2021/06/25 03:21:59;;;;;;;14.27;7.10;;;;;;;21.96;80.45;100506.64;1694899;82;21056;-70
2021/06/25 03:24:26;;;;;;;12.70;7.47;;;;;;;22.03;80.30;100509.61;1674254;84;21144;-68
2021/06/25 03:26:54;;;;;;;15.20;7.30;;;;;;;22.11;80.11;100507.38;1645321;85;21132;-69
2021/06/25 03:29:21;;;;;;;13.60;7.50;;;;;;;22.19;79.95;100513.88;1642283;86;22266;-69
2021/06/25 03:31:48;;;;;;;12.17;7.93;;;;;;;22.27;79.77;100518.42;1664207;84;21136;-70
2021/06/25 03:34:15;;;;;;;14.40;8.37;;;;;;;22.34;79.68;100517.88;1665515;85;21115;-69
2021/06/25 03:36:42;;;;;;;14.00;7.67;;;;;;;22.39;79.75;100521.17;1659426;86;21060;-69
2021/06/25 03:39:09;;;;;;;17.73;7.80;;;;;;;22.44;80.13;100518.80;1648762;85;21091;-69
2021/06/25 03:41:36;;;;;;;16.60;7.90;;;;;;;22.48;80.56;100507.48;1654270;84;21174;-70
2021/06/25 03:44:03;;;;;;;13.07;7.97;;;;;;;22.57;80.74;100506.00;1635862;85;21035;-70
2021/06/25 03:46:30;;;;;;;14.50;8.23;;;;;;;22.65;80.85;100507.83;1642077;85;21092;-70
2021/06/25 03:48:57;;;;;;;15.70;8.13;;;;;;;22.74;81.22;100507.70;1649678;86;21554;-70
2021/06/25 03:51:24;;;;;;;16.07;7.80;;;;;;;22.82;81.54;100511.69;1631153;86;21071;-70
2021/06/25 03:53:51;;;;;;;13.47;7.80;;;;;;;22.89;81.92;100511.12;1640286;86;21316;-70
2021/06/25 03:56:18;;;;;;;12.20;8.47;;;;;;;22.98;82.14;100507.75;1628769;85;21136;-70
2021/06/25 03:58:49;;;;;;;14.07;9.00;;;;;;;23.04;82.18;100500.94;1646571;86;21103;-70
2021/06/25 04:01:17;;;;;;;13.27;8.63;;;;;;;23.11;82.18;100502.52;1640104;84;21127;-70
2021/06/25 04:03:45;;;;;;;11.13;8.97;;;;;;;23.17;82.17;100502.50;1642555;85;21108;-70
2021/06/25 04:06:12;;;;;;;12.67;8.77;;;;;;;23.27;82.19;100497.73;1643707;86;21154;-70
2021/06/25 04:08:39;;;;;;;19.23;9.47;;;;;;;23.34;82.21;100485.67;1637464;86;21056;-70
2021/06/25 04:11:06;;;;;;;16.97;10.30;;;;;;;23.40;82.21;100483.72;1649568;84;21029;-69
2021/06/25 04:13:35;;;;;;;15.53;9.90;;;;;;;23.47;82.16;100484.48;1639885;84;21145;-69
2021/06/25 04:16:02;;;;;;;17.07;10.20;;;;;;;23.54;81.88;100485.27;1644939;85;21037;-69
2021/06/25 04:18:29;;;;;;;15.87;9.40;;;;;;;23.59;81.59;100482.28;1641867;85;21152;-69
2021/06/25 04:20:59;;;;;;;16.23;9.43;;;;;;;23.68;81.41;100482.14;1633495;85;21083;-69
2021/06/25 04:23:26;;;;;;;20.63;8.83;;;;;;;23.77;81.17;100486.33;1640710;85;21167;-69
2021/06/25 04:25:53;;;;;;;16.07;8.50;;;;;;;23.87;80.71;100478.22;1646295;86;21109;-69
2021/06/25 04:28:20;;;;;;;14.90;8.13;;;;;;;23.93;80.11;100474.10;1652879;86;21048;-70
2021/06/25 04:30:47;;;;;;;16.73;9.10;;;;;;;24.04;79.96;100470.28;1653865;85;21218;-69
2021/06/25 04:33:14;;;;;;;15.40;8.70;;;;;;;24.17;79.41;100473.73;1651360;84;21064;-70
2021/06/25 04:35:43;;;;;;;17.53;8.97;;;;;;;24.29;78.81;100470.94;1656336;85;21087;-69
2021/06/25 04:38:10;;;;;;;17.87;9.67;;;;;;;24.39;77.94;100470.98;1668983;85;22088;-69
2021/06/25 04:40:41;;;;;;;15.30;8.63;;;;;;;24.50;77.31;100464.66;1654149;85;21578;-70
2021/06/25 04:43:09;;;;;;;14.07;8.17;;;;;;;24.61;77.11;100464.91;1647574;85;21117;-69
2021/06/25 04:45:37;;;;;;;14.60;8.50;;;;;;;24.71;76.80;100458.11;1649129;86;21231;-69
2021/06/25 04:48:10;;;;;;;12.87;7.50;;;;;;;24.80;75.66;100455.41;1627820;86;21083;-70
2021/06/25 04:50:39;;;;;;;12.33;6.73;;;;;;;24.89;74.80;100458.53;1657627;85;21876;-69
2021/06/25 04:53:06;;;;;;;15.10;7.20;;;;;;;24.96;72.89;100463.57;1675528;83;21530;-70
2021/06/25 04:55:40;;;;;;;11.33;6.70;;;;;;;25.04;71.67;100460.41;1672784;83;21157;-69
2021/06/25 04:58:01;;;;;;;15.57;6.83;;;;;;;25.17;71.48;100457.83;1695246;83;21206;-71
2021/06/25 05:00:28;;;;;;;13.93;7.43;;;;;;;25.32;70.34;100454.02;1702374;84;21040;-69
2021/06/25 05:02:54;;;;;;;16.13;7.40;;;;;;;25.47;70.06;100458.63;1691282;82;21045;-70
2021/06/25 05:05:21;;;;;;;15.87;7.37;;;;;;;25.61;69.39;100460.27;1696442;84;21076;-70
2021/06/25 05:07:48;;;;;;;13.87;6.67;;;;;;;25.77;69.37;100467.03;1698130;84;21599;-70
2021/06/25 05:10:15;;;;;;;13.27;6.60;;;;;;;25.89;68.66;100473.71;1672597;84;21036;-70
2021/06/25 05:12:42;;;;;;;11.03;6.97;;;;;;;26.03;68.42;100475.13;1682082;82;21043;-70
2021/06/25 05:15:12;;;;;;;14.27;7.07;;;;;;;26.15;67.61;100479.85;1693813;84;21048;-70
2021/06/25 05:17:38;;;;;;;12.00;6.30;;;;;;;26.28;66.98;100472.25;1701439;84;21119;-69
2021/06/25 05:20:07;;;;;;;10.23;6.33;;;;;;;26.42;66.39;100474.43;1700769;82;21555;-70
2021/06/25 05:22:34;;;;;;;11.27;6.50;;;;;;;26.50;65.68;100474.80;1686477;82;21532;-70
2021/06/25 05:25:04;;;;;;;13.33;6.10;;;;;;;26.62;64.99;100475.16;1697001;82;22273;-70
2021/06/25 05:27:30;;;;;;;11.83;5.70;;;;;;;26.73;64.15;100480.25;1697163;84;21020;-70
2021/06/25 05:29:58;;;;;;;15.27;5.43;;;;;;;26.87;63.04;100481.03;1659882;85;21090;-70
2021/06/25 05:32:24;;;;;;;13.33;5.67;;;;;;;26.98;61.90;100482.55;1646938;86;22352;-70
2021/06/25 05:34:51;;;;;;;10.77;5.40;;;;;;;27.07;60.60;100484.45;1645875;86;21139;-70
2021/06/25 05:37:17;;;;;;;9.50;4.50;;;;;;;27.15;59.80;100477.95;1654657;85;21190;-71
2021/06/25 05:39:44;;;;;;;10.57;5.10;;;;;;;27.24;58.95;100481.77;1674674;84;21166;-68
2021/06/25 05:42:11;;;;;;;8.90;5.07;;;;;;;27.36;58.40;100479.58;1653574;85;21071;-69
2021/06/25 05:44:37;;;;;;;10.83;4.60;;;;;;;27.50;58.17;100474.05;1633033;85;21176;-69
2021/06/25 05:47:05;;;;;;;10.30;4.87;;;;;;;27.62;57.75;100475.19;1640317;85;21525;-70
2021/06/25 05:49:32;;;;;;;9.13;4.57;;;;;;;27.73;57.34;100475.30;1643911;85;21096;-70
2021/06/25 05:51:59;;;;;;;10.43;4.50;;;;;;;27.85;57.24;100472.91;1650174;86;21064;-71
2021/06/25 05:54:26;;;;;;;13.00;4.77;;;;;;;27.94;56.70;100472.03;1663733;84;21051;-69
2021/06/25 05:56:54;;;;;;;10.97;4.47;;;;;;;28.07;56.79;100485.70;1660151;84;21544;-69
2021/06/25 05:59:20;;;;;;;10.10;4.20;;;;;;;28.21;55.26;100480.91;1638838;86;21040;-69
2021/06/25 06:01:48;;;;;;;12.73;4.00;;;;;;;28.35;54.53;100492.02;1609443;86;21175;-70
2021/06/25 06:04:14;;;;;;;13.70;3.93;;;;;;;28.46;52.68;100492.94;1699310;81;21035;-69
2021/06/25 06:06:41;;;;;;;12.37;3.77;;;;;;;28.57;50.97;100491.64;1697663;83;21043;-69
2021/06/25 06:09:08;;;;;;;10.10;3.77;;;;;;;28.69;50.46;100487.23;1703918;83;21858;-69
2021/06/25 06:11:35;;;;;;;11.00;3.10;;;;;;;28.80;49.88;100490.05;1692011;84;21145;-67
2021/06/25 06:14:02;;;;;;;14.10;3.93;;;;;;;28.91;49.08;100490.10;1683645;82;21634;-67
2021/06/25 06:16:29;;;;;;;8.67;3.23;;;;;;;29.05;48.24;100495.70;1692578;83;21103;-71
2021/06/25 06:18:57;;;;;;;9.47;4.40;;;;;;;29.17;48.67;100495.39;1699073;83;21051;-68
2021/06/25 06:21:24;;;;;;;8.80;4.33;;;;;;;29.30;48.85;100499.97;1675561;84;21551;-68
2021/06/25 06:32:18;;;;;;;8.10;4.33;;;;;;;29.64;49.72;100507.41;1682270;84;21806;-67
2021/06/25 06:34:39;;;;;;;15.83;5.07;;;;;;;29.75;49.88;100510.21;1675305;84;21378;-68
2021/06/25 06:37:06;;;;;;;9.43;4.60;;;;;;;29.85;50.39;100516.92;1686017;82;21107;-69
2021/06/25 06:39:33;;;;;;;11.95;4.78;;;;;;;29.91;50.42;100521.66;1644601;85;21044;-69
2021/06/25 06:41:59;;;;;;;10.63;4.65;;;;;;;30.04;50.54;100518.52;1643975;85;21128;-69
2021/06/25 06:44:26;;;;;;;11.67;5.10;;;;;;;30.17;50.30;100519.72;1674977;84;21599;-69
2021/06/25 06:46:54;;;;;;;9.05;4.75;;;;;;;30.30;50.30;100518.19;1661058;85;21095;-67
2021/06/25 06:49:21;;;;;;;12.58;5.37;;;;;;;30.41;49.60;100523.73;1661676;85;21138;-69
2021/06/25 06:51:48;;;;;;;11.18;5.12;;;;;;;30.43;49.53;100528.84;1671215;85;21064;-69
2021/06/25 06:54:14;;;;;;;8.43;4.12;;;;;;;30.37;49.00;100529.81;1625839;85;21330;-69
2021/06/25 06:56:41;;;;;;;12.07;4.78;;;;;;;30.28;49.18;100523.33;1670880;84;21087;-69
2021/06/25 06:59:08;;;;;;;9.93;4.80;;;;;;;30.28;48.96;100519.78;1656403;85;21128;-68
2021/06/25 07:01:35;;;;;;;13.03;5.15;;;;;;;30.35;49.04;100522.55;1651066;86;21182;-69
2021/06/25 07:04:03;;;;;;;10.75;4.53;;;;;;;30.48;49.36;100520.97;1656042;84;21083;-69
2021/06/25 07:06:29;;;;;;;10.08;4.62;;;;;;;30.61;48.15;100513.09;1642051;84;21158;-69
2021/06/25 07:08:56;;;;;;;10.18;4.78;;;;;;;30.66;47.78;100522.33;1639829;86;21610;-68
2021/06/25 07:11:23;;;;;;;9.18;4.60;;;;;;;30.70;48.29;100520.38;1633001;86;21262;-69
2021/06/25 07:13:52;;;;;;;8.93;4.28;;;;;;;30.67;48.53;100518.41;1659218;84;21698;-70
2021/06/25 07:16:20;;;;;;;13.62;5.05;;;;;;;30.72;47.96;100519.38;1666672;84;21203;-69
2021/06/25 07:18:47;;;;;;;9.18;4.50;;;;;;;30.78;47.77;100524.72;1662101;85;21657;-69
2021/06/25 07:21:13;;;;;;;11.78;4.50;;;;;;;30.83;46.82;100521.58;1637442;85;21083;-70
2021/06/25 07:23:40;;;;;;;9.23;4.20;;;;;;;30.82;47.01;100511.71;1636787;86;21251;-69
2021/06/25 07:26:07;;;;;;;10.32;4.60;;;;;;;30.80;46.42;100505.02;1647049;85;21096;-70
2021/06/25 07:28:33;;;;;;;11.83;4.30;;;;;;;30.75;46.19;100501.27;1639184;87;21060;-69
2021/06/25 07:31:00;;;;;;;8.38;4.00;;;;;;;30.82;45.91;100492.41;1645385;85;21070;-69
2021/06/25 07:33:27;;;;;;;9.48;4.55;;;;;;;30.93;45.76;100486.89;1666566;83;21565;-70
2021/06/25 07:35:56;;;;;;;10.40;4.65;;;;;;;31.06;45.76;100487.23;1673407;83;21160;-69
2021/06/25 07:38:22;;;;;;;11.18;3.98;;;;;;;31.18;44.77;100492.91;1645939;86;21594;-69
2021/06/25 07:40:49;;;;;;;8.78;3.98;;;;;;;31.31;44.29;100488.53;1651023;85;21075;-69
2021/06/25 07:43:15;;;;;;;13.72;4.50;;;;;;;31.43;45.30;100488.13;1655841;86;21059;-70
2021/06/25 07:45:43;;;;;;;9.50;4.03;;;;;;;31.58;44.59;100485.28;1638866;85;21659;-69
2021/06/25 07:48:09;;;;;;;7.83;3.83;;;;;;;31.64;43.50;100483.08;1651647;85;21283;-68
2021/06/25 07:50:35;;;;;;;11.08;4.37;;;;;;;31.67;44.40;100481.50;1663010;83;21187;-69
2021/06/25 07:53:02;;;;;;;10.50;4.40;;;;;;;31.69;43.93;100476.37;1673774;85;21040;-71
2021/06/25 07:55:29;;;;;;;10.93;3.80;;;;;;;31.77;44.19;100473.74;1669813;84;22169;-68
2021/06/25 07:57:56;;;;;;;11.43;3.65;;;;;;;31.91;43.69;100473.67;1669280;83;21204;-69
2021/06/25 08:00:23;;;;;;;8.35;3.65;;;;;;;32.10;42.61;100477.11;1679139;84;21842;-70
2021/06/25 08:02:49;;;;;;;10.10;3.85;;;;;;;32.24;41.57;100479.75;1611679;87;21129;-69
2021/06/25 08:05:16;;;;;;;8.05;3.50;;;;;;;32.37;41.07;100471.15;1649546;86;21025;-71
2021/06/25 08:07:43;;;;;;;6.25;3.17;;;;;;;32.48;40.47;100474.44;1645121;84;21065;-69
2021/06/25 08:10:10;;;;;;;7.20;3.00;;;;;;;32.57;39.83;100474.16;1632834;86;21090;-69
2021/06/25 08:12:37;;;;;;;6.28;3.10;;;;;;;32.67;39.09;100476.63;1639694;86;21224;-69
2021/06/25 08:15:06;;;;;;;5.72;2.70;;;;;;;32.74;38.82;100473.79;1640926;86;21076;-70
2021/06/25 08:17:33;;;;;;;10.82;3.00;;;;;;;32.79;37.60;100478.89;1641457;84;21129;-70
2021/06/25 08:20:00;;;;;;;8.65;3.20;;;;;;;32.86;37.76;100477.42;1652107;84;21096;-69
2021/06/25 08:22:26;;;;;;;7.20;2.70;;;;;;;32.96;37.79;100490.17;1650321;85;21229;-70
2021/06/25 08:24:54;;;;;;;5.30;2.20;;;;;;;33.04;37.02;100482.00;1667582;85;21103;-69
2021/06/25 08:27:20;;;;;;;7.92;2.58;;;;;;;33.13;36.71;100485.06;1654472;84;21084;-69
2021/06/25 08:29:49;;;;;;;7.25;2.87;;;;;;;33.26;36.48;100485.31;1680012;84;21111;-68
2021/06/25 08:32:16;;;;;;;8.25;2.90;;;;;;;33.38;36.15;100486.16;1682008;85;21079;-69
2021/06/25 08:34:42;;;;;;;8.45;2.47;;;;;;;33.52;35.12;100481.83;1680563;83;21055;-70
2021/06/25 08:37:09;;;;;;;7.62;2.12;;;;;;;33.64;34.84;100481.11;1663679;84;21145;-70
2021/06/25 08:39:36;;;;;;;7.12;2.12;;;;;;;33.70;32.02;100486.36;1659310;85;21072;-70
2021/06/25 08:42:04;;;;;;;6.78;2.17;;;;;;;33.70;32.02;100486.36;1653541;85;21042;-70
2021/06/25 08:44:37;;;;;;;6.00;2.30;;;;;;;33.74;31.29;100486.48;1668984;85;21092;-70
2021/06/25 08:47:05;;;;;;;7.08;2.08;;;;;;;33.77;31.86;100485.66;1623669;85;21063;-70
2021/06/25 08:49:35;;;;;;;7.03;2.80;;;;;;;33.81;32.33;100482.22;1638023;85;21173;-70
2021/06/25 08:52:02;;;;;;;6.85;2.12;;;;;;;34.05;32.09;100480.30;1667192;85;21091;-69
2021/06/25 08:54:29;;;;;;;6.85;2.37;;;;;;;34.05;32.09;100480.30;1629383;86;21872;-70
2021/06/25 08:56:57;;;;;;;6.53;2.33;;;;;;;34.18;30.82;100480.50;1617337;84;21079;-69
2021/06/25 08:59:24;;;;;;;7.90;2.70;;;;;;;34.28;31.13;100478.14;1647675;86;21130;-71
2021/06/25 09:01:52;;;;;;;5.70;2.00;;;;;;;34.41;31.18;100479.72;1646733;85;21540;-70
2021/06/25 09:04:40;;;;;;;8.30;2.72;;;;;;;34.50;29.73;100479.18;1631641;85;21276;-70
2021/06/25 09:07:09;;;;;;;8.65;3.00;;;;;;;34.61;29.86;100475.62;1629977;86;21103;-70
2021/06/25 09:09:47;;;;;;;5.67;2.05;;;;;;;34.69;29.20;100474.30;1642760;85;20992;-69
2021/06/25 09:12:24;;;;;;;9.33;2.40;;;;;;;34.73;28.84;100470.86;1649869;85;21107;-70
2021/06/25 09:15:00;;;;;;;9.50;2.83;;;;;;;34.82;28.54;100458.43;1647177;85;21185;-70
2021/06/25 09:17:28;;;;;;;8.35;2.67;;;;;;;34.89;29.55;100458.28;1646125;84;21071;-70
2021/06/25 09:19:56;;;;;;;7.28;2.65;;;;;;;34.92;29.18;100456.05;1643029;84;21080;-70
2021/06/25 09:22:22;;;;;;;10.82;2.98;;;;;;;34.92;30.25;100452.66;1643565;85;21228;-71
2021/06/25 09:25:02;;;;;;;8.25;2.77;;;;;;;34.93;31.45;100447.89;1649184;85;21083;-71
2021/06/25 09:27:30;;;;;;;8.90;2.90;;;;;;;35.00;32.24;100460.23;1638424;85;23233;-70
2021/06/25 09:29:57;;;;;;;9.00;2.58;;;;;;;35.10;31.65;100460.65;1666281;84;21127;-71
2021/06/25 09:32:35;;;;;;;8.40;2.50;;;;;;;35.16;33.13;100463.10;1661247;85;21091;-70
2021/06/25 09:35:12;;;;;;;9.13;2.80;;;;;;;35.28;32.83;100463.68;1655573;85;21068;-69
2021/06/25 09:37:49;;;;;;;6.85;2.80;;;;;;;35.42;32.51;100467.53;1651507;84;21116;-69
2021/06/25 09:40:18;;;;;;;7.58;2.70;;;;;;;35.41;32.15;100461.20;1660201;84;21108;-70
2021/06/25 09:42:47;;;;;;;6.12;2.70;;;;;;;35.49;31.67;100463.20;1635530;85;21127;-70
2021/06/25 09:45:16;;;;;;;8.43;2.75;;;;;;;35.60;31.35;100462.98;1639307;85;21625;-70
2021/06/25 09:47:54;;;;;;;9.75;3.02;;;;;;;35.64;31.70;100465.88;1651222;86;21625;-70
2021/06/25 09:50:22;;;;;;;8.33;2.80;;;;;;;35.65;31.17;100460.48;1644339;85;21091;-69
2021/06/25 09:52:55;;;;;;;6.85;2.67;;;;;;;35.76;31.01;100458.84;1634901;86;21686;-70
2021/06/25 09:55:28;;;;;;;8.75;2.87;;;;;;;35.81;30.48;100456.95;1645306;86;21067;-70
2021/06/25 10:01:28;;;;;;;8.43;2.58;;;;;;;36.20;31.84;100451.66;1676982;84;21044;-70
2021/06/25 10:03:59;;;;;;;8.38;3.22;;;;;;;36.38;30.43;100451.39;1680898;84;21597;-69
2021/06/25 10:06:32;;;;;;;9.73;2.67;;;;;;;36.46;30.42;100447.83;1674511;85;21132;-70
2021/06/25 10:08:59;;;;;;;7.92;2.95;;;;;;;36.45;30.92;100443.46;1703518;81;21148;-70
2021/06/25 10:11:29;;;;;;;6.53;2.98;;;;;;;36.43;31.07;100439.55;1692253;83;21151;-70
2021/06/25 10:13:59;;;;;;;7.65;2.67;;;;;;;36.48;30.75;100435.63;1694537;84;21052;-71
2021/06/25 10:16:26;;;;;;;6.58;2.70;;;;;;;36.53;31.46;100440.70;1685189;84;21156;-70
2021/06/25 10:18:55;;;;;;;6.65;2.98;;;;;;;36.56;30.70;100436.24;1692836;82;21923;-70
2021/06/25 10:21:27;;;;;;;8.25;2.80;;;;;;;36.58;31.02;100438.77;1697847;82;21627;-71
2021/06/25 10:23:59;;;;;;;9.35;2.83;;;;;;;36.52;31.08;100439.12;1703048;82;21609;-71
2021/06/25 10:26:26;;;;;;;8.85;3.02;;;;;;;36.31;31.24;100436.28;1698442;83;21160;-70
2021/06/25 10:28:53;;;;;;;6.78;2.83;;;;;;;36.08;31.35;100442.05;1721807;82;21696;-70
2021/06/25 10:31:22;;;;;;;7.70;3.12;;;;;;;35.84;31.62;100437.25;1683634;82;21887;-70
2021/06/25 10:33:50;;;;;;;8.50;2.80;;;;;;;35.82;32.12;100434.11;1699533;84;21016;-70
2021/06/25 10:36:22;;;;;;;5.60;2.55;;;;;;;35.90;31.21;100432.12;1692802;84;21071;-70
2021/06/25 10:38:49;;;;;;;5.87;2.47;;;;;;;35.98;31.36;100434.11;1701797;83;21330;-70
2021/06/25 10:41:18;;;;;;;9.18;3.10;;;;;;;35.97;30.50;100431.75;1675868;84;21061;-70
2021/06/25 10:43:52;;;;;;;8.23;2.90;;;;;;;35.91;30.47;100435.68;1680738;84;21590;-69
2021/06/25 10:46:39;;;;;;;6.60;2.65;;;;;;;35.76;31.12;100431.05;1690777;84;21076;-70
2021/06/25 10:49:14;;;;;;;5.95;2.67;;;;;;;35.68;31.27;100429.67;1684887;83;21057;-70
2021/06/25 10:51:44;;;;;;;5.42;2.40;;;;;;;35.67;31.87;100425.31;1700101;81;21123;-70
2021/06/25 10:54:19;;;;;;;4.95;2.70;;;;;;;35.88;31.58;100431.77;1668129;83;21570;-70
2021/06/25 10:56:55;;;;;;;9.38;2.70;;;;;;;36.10;30.57;100430.66;1665299;85;21143;-71
2021/06/25 10:59:28;;;;;;;8.93;2.50;;;;;;;36.13;30.56;100431.77;1663366;84;21069;-69
2021/06/25 11:02:03;;;;;;;7.85;2.60;;;;;;;36.18;30.28;100434.04;1645036;85;21003;-70
2021/06/25 11:04:41;;;;;;;7.47;2.80;;;;;;;36.31;30.21;100434.11;1645639;85;21085;-70
2021/06/25 11:07:15;;;;;;;4.75;2.40;;;;;;;36.42;30.68;100429.65;1632336;85;21124;-70
2021/06/25 11:09:56;;;;;;;4.35;2.47;;;;;;;36.55;30.16;100434.69;1642056;85;21645;-73
2021/06/25 11:12:27;;;;;;;;;;;;;;;36.61;29.30;100427.37;1661638;85;21068;-71
2021/06/25 11:15:12;;;;;;;4.72;2.15;;;;;;;36.47;29.82;100428.52;1663593;85;20239;-71
2021/06/25 11:17:59;;;;;;;7.40;2.67;;;;;;;36.48;30.21;100427.91;1686206;83;21110;-70
2021/06/25 11:20:40;;;;;;;9.55;3.35;;;;;;;36.56;29.87;100424.53;1685613;83;21091;-70
2021/06/25 11:23:11;;;;;;;7.87;3.00;;;;;;;36.62;30.61;100417.80;1624679;86;21142;-69
2021/06/25 11:25:53;;;;;;;6.65;2.52;;;;;;;36.69;30.16;100412.06;1635201;86;21541;-70
2021/06/25 11:28:33;;;;;;;7.00;2.75;;;;;;;36.63;30.37;100409.02;1636409;86;21099;-69
2021/06/25 11:31:17;;;;;;;5.12;2.80;;;;;;;36.50;30.86;100411.59;1636582;84;21080;-70
2021/06/25 11:33:59;;;;;;;4.72;2.90;;;;;;;36.39;31.49;100411.83;1619429;86;21131;-70
2021/06/25 11:36:52;;;;;;;5.85;2.85;;;;;;;36.40;31.57;100412.80;1639996;85;21218;-71
2021/06/25 11:39:33;;;;;;;6.60;2.47;;;;;;;36.40;31.43;100412.02;1642730;86;21039;-70